createdAt,value
2019-04-04T00:02:25.210Z,6.50
2019-04-04T00:04:57.677Z,6.40
2019-04-04T00:07:29.018Z,6.40
2019-04-04T00:09:59.461Z,6.40
2019-04-04T00:12:29.769Z,6.40
2019-04-04T00:15:00.107Z,6.40
2019-04-04T00:17:30.482Z,6.40
2019-04-04T00:20:01.416Z,6.40
2019-04-04T00:22:31.901Z,6.40
2019-04-04T00:25:02.240Z,6.40
2019-04-04T00:27:32.533Z,6.40
2019-04-04T00:30:02.901Z,6.40
2019-04-04T00:32:33.238Z,6.40
2019-04-04T00:35:03.538Z,6.40
2019-04-04T00:37:35.740Z,6.40
2019-04-04T00:40:06.177Z,6.40
2019-04-04T00:42:36.457Z,6.40
2019-04-04T00:45:07.947Z,6.30
2019-04-04T00:47:38.923Z,6.30
2019-04-04T00:50:09.262Z,6.30
2019-04-04T00:52:41.367Z,6.30
2019-04-04T00:55:11.750Z,6.20
2019-04-04T00:57:42.093Z,6.20
2019-04-04T01:00:12.485Z,6.20
2019-04-04T01:02:42.790Z,6.20
2019-04-04T01:05:14.198Z,6.10
2019-04-04T01:07:44.632Z,6.10
2019-04-04T01:10:15.010Z,6.10
2019-04-04T01:12:45.312Z,6.10
2019-04-04T01:15:15.825Z,6.10
2019-04-04T01:17:46.142Z,6.00
2019-04-04T01:20:20.038Z,6.10
2019-04-04T01:22:49.101Z,6.00
2019-04-04T01:25:19.453Z,6.00
2019-04-04T01:27:49.757Z,6.00
2019-04-04T01:30:20.188Z,6.00
2019-04-04T01:32:50.484Z,5.90
2019-04-04T01:35:22.428Z,6.00
2019-04-04T01:37:52.836Z,6.00
2019-04-04T01:40:23.167Z,6.00
2019-04-04T01:42:53.553Z,6.00
2019-04-04T01:45:23.871Z,6.00
2019-04-04T01:47:54.165Z,6.00
2019-04-04T01:50:24.523Z,6.10
2019-04-04T01:52:54.813Z,6.10
2019-04-04T01:55:25.130Z,6.00
2019-04-04T01:57:55.458Z,6.00
2019-04-04T02:00:25.781Z,6.00
2019-04-04T02:02:56.081Z,6.00
2019-04-04T02:05:27.059Z,5.90
2019-04-04T02:07:58.866Z,5.90
2019-04-04T02:10:29.802Z,5.90
2019-04-04T02:13:00.113Z,5.90
2019-04-04T02:15:30.537Z,5.90
2019-04-04T02:18:00.838Z,5.90
2019-04-04T02:20:31.128Z,5.90
2019-04-04T02:23:01.940Z,5.90
2019-04-04T02:25:34.089Z,5.90
2019-04-04T02:28:04.360Z,5.80
2019-04-04T02:30:34.655Z,5.70
2019-04-04T02:33:05.036Z,5.60
2019-04-04T02:35:35.362Z,5.60
2019-04-04T02:38:05.685Z,5.50
2019-04-04T02:40:36.077Z,5.50
2019-04-04T02:43:06.366Z,5.50
2019-04-04T02:45:38.855Z,5.50
2019-04-04T02:48:08.623Z,5.50
2019-04-04T02:50:38.962Z,5.50
2019-04-04T02:53:09.330Z,5.50
2019-04-04T02:55:39.911Z,5.50
2019-04-04T02:58:13.939Z,5.50
2019-04-04T03:00:42.157Z,5.50
2019-04-04T03:03:12.506Z,5.50
2019-04-04T03:05:42.887Z,5.50
2019-04-04T03:08:13.417Z,5.50
2019-04-04T03:10:47.603Z,5.50
2019-04-04T03:13:15.697Z,5.50
2019-04-04T03:15:48.211Z,5.50
2019-04-04T03:18:17.934Z,5.40
2019-04-04T03:20:50.401Z,5.40
2019-04-04T03:23:20.287Z,5.40
2019-04-04T03:25:51.137Z,5.40
2019-04-04T03:28:21.426Z,5.40
2019-04-04T03:31:01.329Z,5.40
2019-04-04T03:33:29.409Z,5.40
2019-04-04T03:35:57.538Z,5.40
2019-04-04T03:38:27.602Z,5.40
2019-04-04T03:40:58.792Z,5.50
2019-04-04T03:43:29.147Z,5.50
2019-04-04T03:46:01.349Z,5.50
2019-04-04T03:48:31.434Z,5.50
2019-04-04T03:51:04.792Z,5.50
2019-04-04T03:53:33.741Z,5.50
2019-04-04T03:56:04.134Z,5.50
2019-04-04T03:58:34.594Z,5.50
2019-04-04T04:01:04.914Z,5.50
2019-04-04T04:03:35.215Z,5.50
2019-04-04T04:06:08.392Z,5.50
2019-04-04T04:08:37.446Z,5.50
2019-04-04T04:11:08.078Z,5.50
2019-04-04T04:13:38.548Z,5.50
2019-04-04T04:17:11.849Z,5.50
2019-04-04T04:19:42.595Z,5.50
2019-04-04T04:22:18.283Z,5.50
2019-04-04T04:24:47.166Z,5.50
2019-04-04T04:27:17.903Z,5.40
2019-04-04T04:29:48.927Z,5.50
2019-04-04T04:32:21.858Z,5.50
2019-04-04T04:34:51.885Z,5.40
2019-04-04T04:37:22.793Z,5.40
2019-04-04T04:39:53.266Z,5.40
2019-04-04T04:42:26.548Z,5.40
2019-04-04T04:44:56.928Z,5.40
2019-04-04T04:47:27.679Z,5.40
2019-04-04T04:49:58.642Z,5.30
2019-04-04T04:52:29.331Z,5.40
2019-04-04T04:54:59.670Z,5.40
2019-04-04T04:57:30.730Z,5.30
2019-04-04T05:00:01.625Z,5.20
2019-04-04T05:02:32.555Z,5.30
2019-04-04T05:05:02.901Z,5.20
2019-04-04T05:07:34.204Z,5.20
2019-04-04T05:10:04.972Z,5.20
2019-04-04T05:12:36.268Z,5.20
2019-04-04T05:15:06.878Z,5.20
2019-04-04T05:19:24.382Z,5.20
2019-04-04T05:21:54.726Z,5.20
2019-04-04T05:24:25.049Z,5.20
2019-04-04T05:26:55.353Z,5.20
2019-04-04T05:29:25.649Z,5.20
2019-04-04T05:31:55.955Z,5.20
2019-04-04T05:34:26.277Z,5.30
2019-04-04T05:36:56.565Z,5.30
2019-04-04T05:39:26.878Z,5.30
2019-04-04T05:41:58.058Z,5.30
2019-04-04T05:44:29.239Z,5.30
2019-04-04T05:46:59.555Z,5.30
2019-04-04T05:49:29.847Z,5.40
2019-04-04T05:52:00.187Z,5.40
2019-04-04T05:54:30.506Z,5.40
2019-04-04T05:57:03.180Z,5.40
2019-04-04T05:59:32.965Z,5.50
2019-04-04T06:02:03.316Z,5.50
2019-04-04T06:04:33.615Z,5.40
2019-04-04T06:07:04.313Z,5.40
2019-04-04T06:09:35.332Z,5.50
2019-04-04T06:12:05.674Z,5.50
2019-04-04T06:14:36.047Z,5.50
2019-04-04T06:17:07.197Z,5.50
2019-04-04T06:19:38.458Z,5.50
2019-04-04T06:22:08.777Z,5.50
2019-04-04T06:24:39.500Z,5.50
2019-04-04T06:27:09.949Z,5.50
2019-04-04T06:29:40.457Z,5.50
2019-04-04T06:32:10.773Z,5.60
2019-04-04T06:34:42.178Z,5.60
2019-04-04T06:37:13.102Z,5.60
2019-04-04T06:39:43.539Z,5.60
2019-04-04T06:42:13.965Z,5.60
2019-04-04T06:44:44.440Z,5.60
2019-04-04T06:47:16.486Z,5.60
2019-04-04T06:49:46.951Z,5.60
2019-04-04T06:52:18.569Z,5.60
2019-04-04T06:54:49.201Z,5.60
2019-04-04T06:57:19.525Z,5.60
2019-04-04T06:59:51.241Z,5.60
2019-04-04T07:02:21.959Z,5.60
2019-04-04T07:04:53.696Z,5.60
2019-04-04T07:07:24.158Z,5.60
2019-04-04T07:09:54.550Z,5.60
2019-04-04T07:12:28.395Z,5.60
2019-04-04T07:14:56.994Z,5.50
2019-04-04T07:17:27.408Z,5.50
2019-04-04T07:19:57.708Z,5.50
2019-04-04T07:22:28.046Z,5.50
2019-04-04T07:25:00.991Z,5.40
2019-04-04T07:27:30.386Z,5.40
2019-04-04T07:30:00.689Z,5.40
2019-04-04T07:32:31.049Z,5.30
2019-04-04T07:35:01.433Z,5.30
2019-04-04T07:37:31.841Z,5.40
2019-04-04T07:40:03.445Z,5.40
2019-04-04T07:42:34.449Z,5.40
2019-04-04T07:45:05.343Z,5.50
2019-04-04T07:47:35.902Z,5.50
2019-04-04T07:50:06.748Z,5.60
2019-04-04T07:52:37.105Z,5.60
2019-04-04T07:55:10.008Z,5.60
2019-04-04T07:57:39.969Z,5.70
2019-04-04T08:00:10.606Z,5.70
2019-04-04T08:02:41.037Z,5.80
2019-04-04T08:05:13.168Z,5.80
2019-04-04T08:07:43.541Z,5.80
2019-04-04T08:10:20.345Z,5.70
2019-04-04T08:12:46.135Z,5.80
2019-04-04T08:15:16.454Z,5.80
2019-04-04T08:17:46.861Z,5.80
2019-04-04T08:21:06.341Z,5.80
2019-04-04T08:23:36.661Z,5.90
2019-04-04T08:26:09.987Z,5.90
2019-04-04T08:28:39.525Z,5.90
2019-04-04T08:31:10.043Z,5.90
2019-04-04T08:33:41.124Z,5.90
2019-04-04T08:36:11.422Z,6.00
2019-04-04T08:38:42.178Z,6.00
2019-04-04T08:41:12.951Z,6.10
2019-04-04T08:43:43.285Z,6.10
2019-04-04T08:46:13.658Z,6.00
2019-04-04T08:48:43.962Z,5.90
2019-04-04T08:51:56.053Z,5.90
2019-04-04T08:54:28.291Z,6.00
2019-04-04T08:57:00.609Z,5.90
2019-04-04T08:59:30.935Z,5.90
2019-04-04T09:02:01.238Z,5.90
2019-04-04T09:04:31.639Z,6.00
2019-04-04T09:07:01.943Z,6.00
2019-04-04T09:09:34.652Z,6.00
2019-04-04T09:12:04.257Z,6.00
2019-04-04T09:14:34.556Z,6.10
2019-04-04T09:17:04.942Z,6.10
2019-04-04T09:19:35.250Z,6.10
2019-04-04T09:22:06.206Z,6.10
2019-04-04T09:24:36.497Z,6.10
2019-04-04T09:27:06.378Z,6.10
2019-04-04T09:29:36.697Z,6.00
2019-04-04T09:32:06.576Z,6.10
2019-04-04T09:34:36.907Z,6.10
2019-04-04T09:37:08.758Z,6.10
2019-04-04T09:39:39.967Z,6.10
2019-04-04T09:42:10.265Z,6.10
2019-04-04T09:44:41.116Z,6.20
2019-04-04T09:47:11.455Z,6.20
2019-04-04T09:49:41.823Z,6.20
2019-04-04T09:52:12.136Z,6.30
2019-04-04T09:54:42.633Z,6.30
2019-04-04T09:57:12.948Z,6.30
2019-04-04T09:59:43.313Z,6.30
2019-04-04T10:02:13.641Z,6.30
2019-04-04T10:04:43.984Z,6.30
2019-04-04T10:07:14.299Z,6.30
2019-04-04T10:09:44.630Z,6.20
2019-04-04T10:12:14.983Z,6.10
2019-04-04T10:14:45.314Z,6.10
2019-04-04T10:17:15.679Z,6.00
2019-04-04T10:19:46.019Z,6.00
2019-04-04T10:22:17.364Z,6.00
2019-04-04T10:24:47.706Z,6.00
2019-04-04T10:27:18.014Z,6.10
2019-04-04T10:29:48.417Z,6.00
2019-04-04T10:32:18.889Z,6.00
2019-04-04T10:34:49.218Z,6.00
2019-04-04T10:37:19.518Z,6.00
2019-04-04T10:39:49.845Z,6.00
2019-04-04T10:42:20.243Z,6.00
2019-04-04T10:44:50.570Z,6.00
2019-04-04T10:47:20.883Z,6.00
2019-04-04T10:49:51.494Z,6.10
2019-04-04T10:52:21.847Z,6.20
2019-04-04T10:54:52.468Z,6.20
2019-04-04T10:57:24.094Z,6.20
2019-04-04T10:59:55.908Z,6.20
2019-04-04T11:02:29.090Z,6.20
2019-04-04T11:04:59.626Z,6.10
2019-04-04T11:07:29.943Z,6.10
2019-04-04T11:10:00.259Z,6.20
2019-04-04T11:12:30.601Z,6.30
2019-04-04T11:15:00.931Z,6.30
2019-04-04T11:17:31.282Z,6.30
2019-04-04T11:20:01.642Z,6.30
2019-04-04T11:22:31.949Z,6.30
2019-04-04T11:25:02.310Z,6.30
2019-04-04T11:27:32.655Z,6.30
2019-04-04T11:30:03.119Z,6.30
2019-04-04T11:32:33.578Z,6.30
2019-04-04T11:35:04.317Z,6.40
2019-04-04T11:37:34.700Z,6.40
2019-04-04T11:40:05.570Z,6.40
2019-04-04T11:42:36.208Z,6.40
2019-04-04T11:45:07.138Z,6.30
2019-04-04T11:47:37.996Z,6.30
2019-04-04T11:50:10.729Z,6.30
2019-04-04T11:52:41.144Z,6.20
2019-04-04T11:55:11.609Z,6.20
2019-04-04T11:57:42.998Z,6.30
2019-04-04T12:00:17.892Z,6.30
2019-04-04T12:02:48.256Z,6.30
2019-04-04T12:05:18.736Z,6.30
2019-04-04T12:07:49.009Z,6.30
2019-04-04T12:10:19.382Z,6.30
2019-04-04T12:12:49.924Z,6.30
2019-04-04T12:15:20.268Z,6.30
2019-04-04T12:17:50.655Z,6.30
2019-04-04T12:20:21.070Z,6.20
2019-04-04T12:22:52.095Z,6.20
2019-04-04T12:25:22.877Z,6.20
2019-04-04T12:27:53.202Z,6.10
2019-04-04T12:30:23.510Z,6.10
2019-04-04T12:32:53.878Z,6.10
2019-04-04T12:35:24.213Z,6.20
2019-04-04T12:37:54.562Z,6.30
2019-04-04T12:40:24.903Z,6.30
2019-04-04T12:42:55.341Z,6.40
2019-04-04T12:45:25.989Z,6.30
2019-04-04T12:47:58.175Z,6.30
2019-04-04T12:50:28.570Z,6.30
2019-04-04T12:52:59.077Z,6.20
2019-04-04T12:55:29.430Z,6.20
2019-04-04T12:58:00.749Z,6.30
2019-04-04T13:00:31.184Z,6.20
2019-04-04T13:03:01.896Z,6.30
2019-04-04T13:05:32.241Z,6.30
2019-04-04T13:08:02.790Z,6.30
2019-04-04T13:10:33.728Z,6.30
2019-04-04T13:13:06.040Z,6.30
2019-04-04T13:15:36.082Z,6.20
2019-04-04T13:18:06.430Z,6.10
2019-04-04T13:20:36.840Z,6.20
2019-04-04T13:23:08.262Z,6.20
2019-04-04T13:25:39.793Z,6.30
2019-04-04T13:28:10.371Z,6.30
2019-04-04T13:30:40.834Z,6.30
2019-04-04T13:33:11.149Z,6.30
2019-04-04T13:35:41.609Z,6.20
2019-04-04T13:38:11.973Z,6.20
2019-04-04T13:40:45.871Z,6.20
2019-04-04T13:43:14.235Z,6.20
2019-04-04T13:45:44.633Z,6.20
2019-04-04T13:48:14.958Z,6.20
2019-04-04T13:50:45.298Z,6.20
2019-04-04T13:53:15.801Z,6.20
2019-04-04T13:55:46.362Z,6.20
2019-04-04T13:58:17.623Z,6.20
2019-04-04T14:00:49.012Z,6.20
2019-04-04T14:03:19.513Z,6.30
2019-04-04T14:05:51.041Z,6.30
2019-04-04T14:08:21.556Z,6.20
2019-04-04T14:10:58.111Z,6.20
2019-04-04T14:13:26.175Z,6.20
2019-04-04T14:15:57.173Z,6.20
2019-04-04T14:18:38.952Z,6.20
2019-04-04T14:21:03.986Z,6.20
2019-04-04T14:23:32.554Z,6.20
2019-04-04T14:26:03.562Z,6.10
2019-04-04T14:28:33.941Z,6.10
2019-04-04T14:31:08.375Z,6.10
2019-04-04T14:33:39.374Z,6.20
2019-04-04T14:36:11.184Z,6.20
2019-04-04T14:38:42.615Z,6.20
2019-04-04T14:41:13.220Z,6.20
2019-04-04T14:43:45.652Z,6.20
2019-04-04T14:46:18.088Z,6.30
2019-04-04T14:48:48.416Z,6.30
2019-04-04T14:51:18.778Z,6.30
2019-04-04T14:53:49.407Z,6.20
2019-04-04T14:56:19.753Z,6.20
2019-04-04T14:58:50.925Z,6.20
2019-04-04T15:01:24.089Z,6.30
2019-04-04T15:03:54.430Z,6.20
2019-04-04T15:06:24.771Z,6.30
2019-04-04T15:08:56.193Z,6.30
2019-04-04T15:11:28.421Z,6.20
2019-04-04T15:13:59.115Z,6.20
2019-04-04T15:16:29.425Z,6.20
2019-04-04T15:19:00.264Z,6.20
2019-04-04T15:21:34.823Z,6.30
2019-04-04T15:24:05.072Z,6.30
2019-04-04T15:26:35.753Z,6.30
2019-04-04T15:29:07.197Z,6.30
2019-04-04T15:31:40.019Z,6.40
2019-04-04T15:34:11.539Z,6.50
2019-04-04T15:36:43.119Z,6.50
2019-04-04T15:39:17.758Z,6.60
2019-04-04T15:41:50.089Z,6.50
2019-04-04T15:44:21.445Z,6.50
2019-04-04T15:46:52.960Z,6.50
2019-04-04T15:49:24.673Z,6.30
2019-04-04T15:51:56.393Z,6.30
2019-04-04T15:54:28.006Z,6.30
2019-04-04T15:56:59.789Z,6.30
2019-04-04T15:59:32.459Z,6.30
2019-04-04T16:02:04.610Z,6.20
2019-04-04T16:04:36.609Z,6.20
2019-04-04T16:07:09.661Z,6.20
2019-04-04T16:09:41.676Z,6.10
2019-04-04T16:12:13.185Z,6.10
2019-04-04T16:14:44.458Z,6.10
2019-04-04T16:17:16.205Z,6.10
2019-04-04T16:19:48.166Z,6.10
2019-04-04T16:22:19.842Z,6.10
2019-04-04T16:24:54.333Z,6.10
2019-04-04T16:27:25.616Z,6.10
2019-04-04T16:29:57.499Z,6.00
2019-04-04T16:32:29.068Z,6.00
2019-04-04T16:35:02.670Z,6.00
2019-04-04T16:37:34.421Z,5.90
2019-04-04T16:40:09.193Z,5.90
2019-04-04T16:42:40.163Z,6.00
2019-04-04T16:45:11.916Z,6.00
2019-04-04T16:47:44.250Z,6.10
2019-04-04T16:50:16.702Z,6.00
2019-04-04T16:52:48.850Z,6.00
2019-04-04T16:55:22.134Z,6.00
2019-04-04T16:57:58.827Z,6.00
2019-04-04T17:00:35.175Z,5.90
2019-04-04T17:03:08.523Z,6.00
2019-04-04T17:05:39.120Z,6.00
2019-04-04T17:08:09.730Z,6.00
2019-04-04T17:10:40.381Z,5.90
2019-04-04T17:13:12.322Z,5.90
2019-04-04T17:15:42.795Z,5.80
2019-04-04T17:18:13.124Z,5.80
2019-04-04T17:20:43.459Z,5.80
2019-04-04T17:23:14.883Z,5.80
2019-04-04T17:25:45.220Z,5.80
2019-04-04T17:28:15.723Z,5.70
2019-04-04T17:30:46.183Z,5.70
2019-04-04T17:33:16.484Z,5.70
2019-04-04T17:35:46.865Z,5.70
2019-04-04T17:38:18.109Z,5.70
2019-04-04T17:40:48.513Z,5.70
2019-04-04T17:43:18.801Z,5.70
2019-04-04T17:45:49.407Z,5.70
2019-04-04T17:48:19.929Z,5.70
2019-04-04T17:50:50.687Z,5.70
2019-04-04T17:53:21.412Z,5.70
2019-04-04T17:55:54.600Z,5.70
2019-04-04T17:58:24.107Z,5.60
2019-04-04T18:00:54.645Z,5.70
2019-04-04T18:03:24.964Z,5.70
2019-04-04T18:05:56.345Z,5.60
2019-04-04T18:08:26.648Z,5.70
2019-04-04T18:10:56.950Z,5.70
2019-04-04T18:13:28.340Z,5.70
2019-04-04T18:15:58.795Z,5.70
2019-04-04T18:18:29.091Z,5.70
2019-04-04T18:21:45.220Z,5.70
2019-04-04T18:24:15.095Z,5.70
2019-04-04T18:26:45.492Z,5.60
2019-04-04T18:29:15.877Z,5.60
2019-04-04T18:31:46.234Z,5.60
2019-04-04T18:34:16.675Z,5.60
2019-04-04T18:36:47.394Z,5.60
2019-04-04T18:39:17.762Z,5.60
2019-04-04T18:44:14.805Z,5.60
2019-04-04T18:46:45.242Z,5.70
2019-04-04T18:49:15.558Z,5.70
2019-04-04T18:51:45.895Z,5.70
2019-04-04T18:54:16.237Z,5.70
2019-04-04T18:56:46.824Z,5.70
2019-04-04T18:59:18.273Z,5.70
2019-04-04T19:01:48.533Z,5.70
2019-04-04T19:04:18.849Z,5.70
2019-04-04T19:06:49.314Z,5.70
2019-04-04T19:09:19.637Z,5.60
2019-04-04T19:11:50.000Z,5.50
2019-04-04T19:14:20.386Z,5.60
2019-04-04T19:16:50.806Z,5.50
2019-04-04T19:19:21.376Z,5.50
2019-04-04T19:21:54.082Z,5.40
2019-04-04T19:24:24.784Z,5.50
2019-04-04T19:26:54.762Z,5.50
2019-04-04T19:29:25.066Z,5.50
2019-04-04T19:31:55.458Z,5.50
2019-04-04T19:34:25.801Z,5.50
2019-04-04T19:36:56.217Z,5.50
2019-04-04T19:39:26.642Z,5.50
2019-04-04T19:41:56.929Z,5.50
2019-04-04T19:44:28.366Z,5.60
2019-04-04T19:46:58.741Z,5.50
2019-04-04T19:49:29.041Z,5.50
2019-04-04T19:51:59.348Z,5.50
2019-04-04T19:54:29.689Z,5.50
2019-04-04T19:57:00.026Z,5.50
2019-04-04T19:59:30.365Z,5.60
2019-04-04T20:02:00.932Z,5.60
2019-04-04T20:04:31.274Z,5.50
2019-04-04T20:07:23.119Z,5.60
2019-04-04T20:09:53.017Z,5.60
2019-04-04T20:12:23.721Z,5.50
2019-04-04T20:14:54.154Z,5.50
2019-04-04T20:17:24.755Z,5.50
2019-04-04T20:19:55.144Z,5.60
2019-04-04T20:22:25.485Z,5.50
2019-04-04T20:24:57.515Z,5.50
2019-04-04T20:27:28.612Z,5.50
2019-04-04T20:29:58.929Z,5.50
2019-04-04T20:32:29.295Z,5.50
2019-04-04T20:35:00.849Z,5.40
2019-04-04T20:37:31.166Z,5.50
2019-04-04T20:40:01.506Z,5.50
2019-04-04T20:42:31.812Z,5.50
2019-04-04T20:45:02.486Z,5.50
2019-04-04T20:47:33.912Z,5.50
2019-04-04T20:50:04.582Z,5.50
2019-04-04T20:52:34.884Z,5.60
2019-04-04T20:55:05.660Z,5.60
2019-04-04T20:57:36.017Z,5.50
2019-04-04T21:00:07.051Z,5.50
2019-04-04T21:02:37.438Z,5.60
2019-04-04T21:05:08.331Z,5.60
2019-04-04T21:07:39.078Z,5.60
2019-04-04T21:10:09.542Z,5.60
2019-04-04T21:12:40.315Z,5.60
2019-04-04T21:15:11.039Z,5.60
2019-04-04T21:17:41.708Z,5.60
2019-04-04T21:20:12.009Z,5.60
2019-04-04T21:23:27.595Z,5.60
2019-04-04T21:25:57.957Z,5.60
2019-04-04T21:28:28.404Z,5.50
2019-04-04T21:30:58.849Z,5.50
2019-04-04T21:33:29.163Z,5.50
2019-04-04T21:36:09.339Z,5.60
2019-04-04T21:38:39.922Z,5.60
2019-04-04T21:41:10.230Z,5.60
2019-04-04T21:43:41.338Z,5.50
2019-04-04T21:46:11.633Z,5.50
2019-04-04T21:48:41.960Z,5.50
2019-04-04T21:51:12.334Z,5.50
2019-04-04T21:53:42.850Z,5.50
2019-04-04T21:56:13.570Z,5.50
2019-04-04T21:58:43.997Z,5.60
2019-04-04T22:01:14.519Z,5.60
2019-04-04T22:03:44.850Z,5.60
2019-04-04T22:06:15.262Z,5.60
2019-04-04T22:08:47.579Z,5.60
2019-04-04T22:11:17.911Z,5.60
2019-04-04T22:13:48.343Z,5.60
2019-04-04T22:16:18.674Z,5.60
2019-04-04T22:18:48.972Z,5.60
2019-04-04T22:21:19.286Z,5.60
2019-04-04T22:23:49.585Z,5.60
2019-04-04T22:26:22.282Z,5.60
2019-04-04T22:28:52.846Z,5.60
2019-04-04T22:31:23.210Z,5.60
2019-04-04T22:33:54.837Z,5.60
2019-04-04T22:36:25.326Z,5.50
2019-04-04T22:38:55.735Z,5.50
2019-04-04T22:41:26.041Z,5.40
2019-04-04T22:44:03.424Z,5.40
2019-04-04T22:46:28.380Z,5.40
2019-04-04T22:48:58.714Z,5.30
2019-04-04T22:51:30.913Z,5.40
2019-04-04T22:54:01.158Z,5.40
2019-04-04T22:56:31.502Z,5.40
2019-04-04T22:59:01.858Z,5.40
2019-04-04T23:01:32.161Z,5.40
2019-04-04T23:04:02.466Z,5.40
2019-04-04T23:06:33.006Z,5.40
2019-04-04T23:09:04.452Z,5.50
2019-04-04T23:11:35.779Z,5.50
2019-04-04T23:14:07.411Z,5.60
2019-04-04T23:16:38.039Z,5.50
2019-04-04T23:19:08.314Z,5.50
2019-04-04T23:21:38.777Z,5.50
2019-04-04T23:24:09.082Z,5.40
2019-04-04T23:26:39.498Z,5.40
2019-04-04T23:29:09.991Z,5.50
2019-04-04T23:31:40.355Z,5.40
2019-04-04T23:34:10.694Z,5.40
2019-04-04T23:36:41.424Z,5.40
2019-04-04T23:39:11.762Z,5.40
2019-04-04T23:41:42.093Z,5.40
2019-04-04T23:44:12.494Z,5.50
2019-04-04T23:46:42.815Z,5.40
2019-04-04T23:49:13.146Z,5.40
2019-04-04T23:51:43.455Z,5.40
2019-04-04T23:54:13.805Z,5.30
2019-04-04T23:56:44.126Z,5.40
2019-04-04T23:59:14.474Z,5.40
